Tiempo atmosférico en la estación meteorológica de Pedrosa Del Príncipe, Burgos (771 m.)



Fecha
DESCASC
Temp. máxima en grados centígrados (hora)
DESCASC
Temp. mínima en grados centígrados (hora)
DESCASC
Temp. media en grados centígrados
DESCASC
Racha de viento máxima en m/sg (hora)
DESCASC
Velocidad máxima media en intervalos de 10 minutos(hora)
DESCASC
Precipitaciones diarias en mm
DESCASC
Precipitaciones de 00:00 a 06:00 en mm
DESCASC
Precipitaciones de 06:00 a 12:00 en mm
DESCASC
Precipitaciones de 12:00 a 18:00 en mm
DESCASC
Precipitaciones de 18:00 a 24:00 en mm
DESCASC
22-01-2020 9.5 (14:50) 2.1 (22:00) 5.8 11.94 (00:30) 7.22 (00:10) 0.6 0.6 0 0 0
21-01-2020 4.3 (12:40) 0 (03:00) 2.2 16.39 (13:50) 9.72 (13:40) 0 0 0 0 0
20-01-2020 3.4 (14:50) -0.9 (06:30) 1.3 18.89 (11:20) 11.39 (05:40) 0 0 0 0 0
19-01-2020 6 (14:20) 0.4 (00:00) 3.2 20.83 (11:00) 13.61 (16:10) 0 0 0 0 0
18-01-2020 10.3 (17:10) 0 (00:00) 5.2 16.94 (18:10) 9.72 (18:10) 1.6 0 0 0.4 1.2
17-01-2020 9.2 (12:40) 0.5 (00:00) 4.8 11.39 (02:10) 6.39 (14:00) 0.2 0 0.2 0 0
16-01-2020 13.5 (15:20) 6.5 (00:00) 10 15 (16:10) 8.61 (16:30) 0.6 0 0 0 0.6
15-01-2020 11 (15:10) 6.1 (00:00) 8.5 13.89 (02:40) 7.78 (05:30) 0 0 0 0 0
14-01-2020 9 (14:30) -1 (-00:0) 4 11.11 (18:20) 6.67 (22:20) 0 0 0 0 0
13-01-2020 1.4 (16:20) -3.4 (-00:0) -1 6.11 (16:50) 3.33 (16:50) 0.2 0 0.2 0 0
12-01-2020 1.2 (16:20) -3.5 (-00:0) -1.1 3.06 (16:40) 1.94 (16:20) 0 0 0 0 0
11-01-2020 8.3 (16:00) -4.3 (-00:0) 2 6.39 (00:40) 3.89 (00:40) 0 0 0 0 0
10-01-2020 8.6 (15:30) -2.5 (-00:0) 3.1 7.5 (16:10) 4.72 (16:00) 0.2 0.2 0 0 0
09-01-2020 9 (19:10) -2 (-00:0) 3.5 8.61 (14:10) 5.28 (14:10) 0 0 0 0 0
08-01-2020 12.1 (16:30) -2.3 (-00:0) 4.9 2.78 (17:00) 1.67 (17:00) 0.2 0 0.2 0 0
07-01-2020 1 (16:00) -3.9 (-00:0) -1.5 2.5 (13:50) 1.39 (13:50) 0 0 0 0 0
06-01-2020 0.3 (15:10) -2.8 (-00:0) -1.2 3.06 (01:20) 1.67 (01:20) 0.2 0 0 0.2 0
05-01-2020 9.8 (16:10) -1.3 (-00:0) 4.3 4.17 (21:00) 2.5 (20:40) 0 0 0 0 0
04-01-2020 8.8 (16:10) 1 (00:00) 4.9 8.33 (16:00) 4.44 (21:50) 0.2 0 0.2 0 0
03-01-2020 3.6 (16:40) -2.9 (-00:0) 0.3 3.06 (07:20) 1.67 (07:30) 2 0 0 0 2
02-01-2020 7.4 (15:50) -5.6 (-00:0) 0.9 3.06 (23:30) 1.39 (14:20) 0.2 0 0.2 0 0
01-01-2020 1.7 (16:40) -5.3 (-00:0) -1.8 1.94 (17:30) 1.11 (17:40) 0.2 0 0 0.2 0
31-12-2019 4.1 (16:00) -4.4 (-00:0) -0.2 2.22 (04:40) 1.11 (04:40) 0.2 0 0.2 0 0
30-12-2019 -- (--) -- (--) -- -- (--) -- (--) -- 0 0 -- 0
29-12-2019 11.6 (16:20) -3.9 (-00:0) 3.9 1.94 (14:20) 1.11 (02:50) 0.2 0 0.2 0 0
28-12-2019 10.2 (17:10) -3.5 (-00:0) 3.3 3.61 (01:50) 2.22 (01:50) 0.2 0 0.2 0 0
27-12-2019 4.4 (16:30) -1.9 (-00:0) 1.3 3.61 (05:10) 1.67 (05:30) 0.2 0 0.2 0 0
26-12-2019 7.6 (14:00) 0.2 (00:00) 3.9 5 (04:10) 2.78 (04:00) 0.2 0.2 0 0 0
25-12-2019 14.1 (15:30) 5.5 (00:00) 9.8 3.61 (16:30) 1.94 (16:30) 0 0 0 0 0

Gráficas

Temp. máximas Temp. mínimas Temp. medias Precipitaciones Rachas de viento máximas Velocidades máximas media en intervalos de 10 minutos

Datos horarios

Fecha y hora oficial Temperatura (ºC) Velocidad del viento (km/h) Dirección del viento Racha (km/h) Dirección de racha Precipitación (mm) Presión (hPa) Tendencia (hPa) Humedad (%)
2020-01-23 23:00:00 3.4 2 Este 11 Nordeste 0 -- -- 86
2020-01-23 22:00:00 3.5 8 Nordeste 15 Nordeste 0 -- -- 90
2020-01-23 21:00:00 2.3 9 Nordeste 12 Nordeste 0 -- -- 91
2020-01-23 20:00:00 2.4 3 Nordeste 6 Nordeste 0 -- -- 86
2020-01-23 19:00:00 4.6 3 Nordeste 9 Este 0 -- -- 81
2020-01-23 18:00:00 7.7 0 Calma 4 Este 0 -- -- 73
2020-01-23 17:00:00 9.1 2 Norte 6 Sudoeste 0 -- -- 67
2020-01-23 16:00:00 9.3 4 Sudoeste 8 Sudeste 0 -- -- 67
2020-01-23 15:00:00 8.5 3 Este 14 Sudeste 0 -- -- 71
2020-01-23 14:00:00 7.5 5 Este 11 Este 0 -- -- 75
2020-01-23 13:00:00 5.7 0 Calma 14 Norte 0 -- -- 82
2020-01-23 12:00:00 4.4 6 Nordeste 12 Nordeste 0 -- -- 90
2020-01-23 11:00:00 3 8 Este 17 Este 0 -- -- 97
2020-01-23 10:00:00 1.5 13 Este 25 Este 0 -- -- 97
2020-01-23 09:00:00 0.6 9 Este 18 Este 0 -- -- 97
2020-01-23 08:00:00 -0.1 9 Nordeste 20 Este 0 -- -- 97
2020-01-23 07:00:00 -1.3 11 Nordeste 19 Nordeste 0 -- -- 97
2020-01-23 06:00:00 -0.8 0 Calma 13 Este 0 -- -- 96
2020-01-23 05:00:00 0.2 10 Nordeste 15 Este 0 -- -- 96
2020-01-23 04:00:00 0.9 9 Este 15 Este 0 -- -- 96
2020-01-23 03:00:00 0.6 6 Nordeste 11 Nordeste 0 -- -- 95
2020-01-23 02:00:00 0 4 Nordeste 12 Nordeste 0 -- -- 93
2020-01-23 01:00:00 1.5 0 Calma 24 Este 0 -- -- 91
2020-01-23 00:00:00 2.5 9 Nordeste 21 Este 0 -- -- 91
2020-01-22 23:00:00 2.8 8 Este 17 Nordeste 0 -- -- 89
2020-01-22 22:00:00 2.1 3 Este 15 Este 0 -- -- 89
2020-01-22 21:00:00 3 11 Nordeste 25 Este 0 -- -- 87
2020-01-22 20:00:00 3.3 8 Este 21 Este 0 -- -- 88
2020-01-22 19:00:00 3.8 10 Nordeste 23 Este 0 -- -- 86
2020-01-22 18:00:00 5.5 10 Nordeste 26 Este 0 -- -- 80
2020-01-22 17:00:00 7.5 15 Este 30 Este 0 -- -- 73
2020-01-22 16:00:00 8.8 17 Este 29 Este 0 -- -- 68
2020-01-22 15:00:00 9.5 15 Este 29 Este 0 -- -- 64
2020-01-22 14:00:00 8.6 15 Nordeste 35 Este 0 -- -- 71
2020-01-22 13:00:00 7.2 24 Este 35 Este 0 -- -- 75
2020-01-22 12:00:00 6.3 17 Nordeste 37 Este 0 -- -- 81
2020-01-22 11:00:00 4.9 21 Este 34 Este 0 -- -- 87
2020-01-22 10:00:00 3.7 14 Este 24 Este 0 -- -- 90
2020-01-22 09:00:00 3.1 7 Nordeste 24 Este 0 -- -- 90
2020-01-22 08:00:00 2.9 12 Este 23 Este 0 -- -- 91
2020-01-22 07:00:00 3.3 11 Este 25 Nordeste 0 -- -- 92
2020-01-22 06:00:00 3.2 11 Nordeste 27 Este 0.6 -- -- 92
2020-01-22 05:00:00 3.8 14 Nordeste 36 Este 0 -- -- 88
2020-01-22 04:00:00 3.7 21 Nordeste 33 Nordeste 0 -- -- 89
2020-01-22 03:00:00 3.6 22 Nordeste 41 Nordeste 0 -- -- 89
2020-01-22 02:00:00 3.4 19 Nordeste 38 Nordeste 0 -- -- 89
2020-01-22 01:00:00 3.3 22 Nordeste 43 Nordeste 0 -- -- 87
2020-01-22 00:00:00 3.1 27 Nordeste 47 Nordeste 0 -- -- 89
2020-01-21 23:00:00 2.8 25 Nordeste 42 Nordeste 0 -- -- 89
2020-01-21 22:00:00 2.2 18 Nordeste 53 Nordeste 0 -- -- 87
2020-01-21 21:00:00 2.1 25 Nordeste 42 Nordeste 0 -- -- 88
2020-01-21 20:00:00 2.5 28 Nordeste 44 Nordeste 0 -- -- 88
2020-01-21 19:00:00 2.3 26 Nordeste 46 Nordeste 0 -- -- 87
2020-01-21 18:00:00 2.2 20 Nordeste 49 Nordeste 0 -- -- 88
2020-01-21 17:00:00 2.2 26 Nordeste 44 Nordeste 0 -- -- 89
2020-01-21 16:00:00 3 25 Nordeste 53 Nordeste 0 -- -- 83
2020-01-21 15:00:00 3.6 26 Nordeste 52 Nordeste 0 -- -- 78
2020-01-21 14:00:00 3.7 34 Nordeste 59 Nordeste 0 -- -- 76
2020-01-21 13:00:00 4 33 Nordeste 53 Nordeste 0 -- -- 74
2020-01-21 12:00:00 3.8 31 Nordeste 53 Nordeste 0 -- -- 74
2020-01-21 11:00:00 2.1 24 Nordeste 48 Nordeste 0 -- -- 80
2020-01-21 10:00:00 2 28 Nordeste 45 Nordeste 0 -- -- 76
2020-01-21 09:00:00 1.2 21 Nordeste 41 Nordeste 0 -- -- 79
2020-01-21 08:00:00 0.9 24 Nordeste 40 Nordeste 0 -- -- 75
2020-01-21 07:00:00 1.1 17 Nordeste 31 Nordeste 0 -- -- 74
2020-01-21 06:00:00 0.7 18 Nordeste 35 Nordeste 0 -- -- 77
2020-01-21 05:00:00 0.5 16 Nordeste 34 Nordeste 0 -- -- 78
2020-01-21 04:00:00 0.2 20 Nordeste 33 Nordeste 0 -- -- 79
2020-01-21 03:00:00 0 14 Nordeste 39 Nordeste 0 -- -- 79
2020-01-21 02:00:00 0.7 12 Nordeste 40 Nordeste 0 -- -- 77
2020-01-21 01:00:00 1.1 26 Nordeste 42 Nordeste 0 -- -- 77
2020-01-21 00:00:00 1.2 22 Nordeste 43 Nordeste 0 -- -- 78
2020-01-20 23:00:00 0.8 22 Nordeste 55 Nordeste 0 -- -- 76
2020-01-20 22:00:00 0.6 26 Nordeste 49 Nordeste 0 -- -- 79
2020-01-20 21:00:00 0.1 28 Nordeste 52 Nordeste 0 -- -- 76
2020-01-20 20:00:00 0.3 31 Nordeste 57 Nordeste 0 -- -- 73
2020-01-20 19:00:00 0.6 29 Nordeste 53 Nordeste 0 -- -- 70
2020-01-20 18:00:00 1.2 32 Nordeste 52 Nordeste 0 -- -- 70
2020-01-20 17:00:00 1.5 27 Nordeste 54 Nordeste 0 -- -- 67
2020-01-20 16:00:00 2 31 Nordeste 53 Este 0 -- -- 64
2020-01-20 15:00:00 2.9 28 Nordeste 53 Nordeste 0 -- -- 60
2020-01-20 14:00:00 2.4 30 Nordeste 63 Nordeste 0 -- -- 61
2020-01-20 13:00:00 2.4 35 Nordeste 62 Nordeste 0 -- -- 58
2020-01-20 12:00:00 1.9 32 Nordeste 68 Nordeste 0 -- -- 59
2020-01-20 11:00:00 1.4 38 Nordeste 59 Nordeste 0 -- -- 60
2020-01-20 10:00:00 0.4 35 Nordeste 56 Nordeste 0 -- -- 66
2020-01-20 09:00:00 -0.7 28 Nordeste 49 Nordeste 0 -- -- 72
2020-01-20 08:00:00 -0.5 25 Nordeste 48 Nordeste 0 -- -- 69
2020-01-20 07:00:00 -0.8 12 Nordeste 36 Nordeste 0 -- -- 72
2020-01-20 06:00:00 -0.5 16 Nordeste 62 Nordeste 0 -- -- 72
2020-01-20 05:00:00 -0.3 29 Nordeste 53 Nordeste 0 -- -- 71
2020-01-20 04:00:00 -0.2 17 Nordeste 42 Nordeste 0 -- -- 72
2020-01-20 03:00:00 0.3 24 Nordeste 40 Nordeste 0 -- -- 68
2020-01-20 02:00:00 0.2 14 Este 44 Nordeste 0 -- -- 71
2020-01-20 01:00:00 0.6 17 Nordeste 55 Nordeste 0 -- -- 68
2020-01-20 00:00:00 0.9 22 Nordeste 53 Nordeste 0 -- -- 67
2020-01-19 23:00:00 0.4 37 Nordeste 67 Nordeste 0 -- -- 83
2020-01-19 22:00:00 1 33 Nordeste 53 Nordeste 0 -- -- 74
2020-01-19 21:00:00 1.2 18 Nordeste 51 Nordeste 0 -- -- 69
2020-01-19 20:00:00 1.4 32 Nordeste 58 Nordeste 0 -- -- 66
2020-01-19 19:00:00 1.5 32 Nordeste 57 Nordeste 0 -- -- 72
2020-01-19 18:00:00 2.5 31 Nordeste 63 Nordeste 0 -- -- 68
2020-01-19 17:00:00 3.8 40 Norte 72 Norte 0 -- -- 62
2020-01-19 16:00:00 4.8 45 Nordeste 72 Norte 0 -- -- 60
2020-01-19 15:00:00 4.8 44 Nordeste 69 Norte 0 -- -- 62
2020-01-19 14:00:00 5.8 41 Nordeste 66 Norte 0 -- -- 61
2020-01-19 13:00:00 5.7 44 Norte 69 Nordeste 0 -- -- 64
2020-01-19 12:00:00 5.2 42 Nordeste 70 Nordeste 0 -- -- 68
2020-01-19 11:00:00 4.5 42 Nordeste 75 Nordeste 0 -- -- 74
2020-01-19 10:00:00 3.5 25 Nordeste 51 Nordeste 0 -- -- 84
2020-01-19 09:00:00 3.4 30 Nordeste 49 Nordeste 0 -- -- 89
2020-01-19 08:00:00 3.7 26 Nordeste 45 Nordeste 0 -- -- 86
2020-01-19 07:00:00 4.1 21 Nordeste 35 Norte 0 -- -- 90
2020-01-19 06:00:00 3.5 17 Norte 24 Norte 0 -- -- 94
2020-01-19 05:00:00 1.7 4 Noroeste 7 Noroeste 0 -- -- 95
2020-01-19 04:00:00 1.8 3 Nordeste 9 Este 0 -- -- 94
2020-01-19 03:00:00 2 5 Nordeste 10 Norte 0 -- -- 93
2020-01-19 02:00:00 2.4 0 Calma 8 Norte 0 -- -- 92
2020-01-19 01:00:00 3.4 3 Norte 4 Sudoeste 0 -- -- 90
2020-01-19 00:00:00 3.8 2 Sur 9 Sudeste 0 -- -- 89
2020-01-18 23:00:00 3.8 6 Sudeste 16 Sudeste 0 -- -- 88
2020-01-18 22:00:00 3.8 8 Sudeste 18 Sudeste 0 -- -- 89
2020-01-18 21:00:00 3.4 8 Este 17 Este 0 -- -- 92
2020-01-18 20:00:00 4.7 7 Este 21 Nordeste 0 -- -- 87
2020-01-18 19:00:00 6.9 11 Oeste 61 Oeste 1.2 -- -- 86
2020-01-18 18:00:00 10.2 29 Sudoeste 51 Oeste 0.2 -- -- 83
2020-01-18 17:00:00 10.1 18 Oeste 36 Oeste 0.2 -- -- 87
2020-01-18 16:00:00 9.4 21 Sudoeste 41 Sur 0 -- -- 91
2020-01-18 15:00:00 9.1 24 Sudoeste 45 Sudoeste 0 -- -- 89
2020-01-18 14:00:00 8 15 Sur 32 Sur 0 -- -- 90
2020-01-18 13:00:00 6.8 16 Sur 28 Sur 0 -- -- 88
2020-01-18 12:00:00 5.8 9 Sur 21 Sudeste 0 -- -- 88
2020-01-18 11:00:00 5.5 9 Sur 24 Sur 0 -- -- 85
2020-01-18 10:00:00 5.2 9 Sur 19 Sudoeste 0 -- -- 81
2020-01-18 09:00:00 4 4 Sudoeste 19 Sur 0 -- -- 85
2020-01-18 08:00:00 3.5 8 Sur 26 Sudeste 0 -- -- 85
2020-01-18 07:00:00 3.4 4 Sur 14 Sudeste 0 -- -- 86
2020-01-18 06:00:00 3 0 Calma 7 Este 0 -- -- 86
2020-01-18 05:00:00 2.8 2 Nordeste 9 Sudoeste 0 -- -- 88
2020-01-18 04:00:00 2.4 3 Sudeste 13 Este 0 -- -- 89
2020-01-18 03:00:00 1.6 3 Oeste 9 Sudoeste 0 -- -- 89
2020-01-18 02:00:00 1.4 0 Calma 5 Este 0 -- -- 88
2020-01-18 01:00:00 0.6 3 Este 9 Este 0 -- -- 91
2020-01-18 00:00:00 0.5 2 Este 4 Este 0 -- -- 90
2020-01-17 23:00:00 1.3 3 Este 5 Este 0 -- -- 88
2020-01-17 22:00:00 2.7 0 Calma 8 Sudoeste 0 -- -- 85
2020-01-17 21:00:00 3.5 0 Calma 7 Sudoeste 0 -- -- 83
2020-01-17 20:00:00 4.4 4 Oeste 6 Oeste 0 -- -- 81
2020-01-17 19:00:00 5.1 3 Sur 10 Oeste 0 -- -- 77
2020-01-17 18:00:00 6.8 6 Oeste 23 Oeste 0 -- -- 68
2020-01-17 17:00:00 8 10 Oeste 25 Oeste 0 -- -- 63
2020-01-17 16:00:00 8.6 14 Oeste 29 Oeste 0 -- -- 59
2020-01-17 15:00:00 8.4 17 Oeste 32 Oeste 0 -- -- 60
2020-01-17 14:00:00 8.8 23 Oeste 39 Oeste 0 -- -- 64
2020-01-17 13:00:00 8.8 15 Oeste 29 Oeste 0 -- -- 69
2020-01-17 12:00:00 7.1 14 Oeste 23 Oeste 0 -- -- 81
2020-01-17 11:00:00 5.9 11 Oeste 27 Oeste 0 -- -- 90
2020-01-17 10:00:00 5.8 13 Oeste 26 Oeste 0 -- -- 90
2020-01-17 09:00:00 6 11 Oeste 25 Oeste 0 -- -- 91
2020-01-17 08:00:00 6.6 14 Oeste 29 Oeste 0 -- -- 89
2020-01-17 07:00:00 6.5 19 Sudoeste 38 Sudoeste 0.2 -- -- 90
2020-01-17 06:00:00 6.9 21 Sudoeste 40 Sudoeste 0 -- -- 87
2020-01-17 05:00:00 6.7 15 Sudoeste 32 Sudoeste 0 -- -- 88
2020-01-17 04:00:00 6.9 13 Sudoeste 29 Sudoeste 0 -- -- 87
2020-01-17 03:00:00 6.9 17 Sudoeste 41 Sudoeste 0 -- -- 88
2020-01-17 02:00:00 6.8 14 Sudoeste 34 Sur 0 -- -- 87
2020-01-17 01:00:00 7.1 14 Sudoeste 37 Sudoeste 0 -- -- 86
2020-01-17 00:00:00 7.7 23 Sudoeste 44 Sudoeste 0 -- -- 83
2020-01-16 23:00:00 8.1 28 Sudoeste 49 Sudoeste 0 -- -- 75
2020-01-16 22:00:00 7.7 17 Sudoeste 52 Sudoeste 0.6 -- -- 77
2020-01-16 21:00:00 9.2 24 Sudoeste 47 Sudoeste 0 -- -- 68
2020-01-16 20:00:00 9 15 Sudoeste 37 Sudoeste 0 -- -- 67
2020-01-16 19:00:00 9.6 19 Sudoeste 40 Sudoeste 0 -- -- 61
2020-01-16 18:00:00 10.1 19 Sudoeste 37 Sudoeste 0 -- -- 56
2020-01-16 17:00:00 12.1 25 Sudoeste 54 Sudoeste 0 -- -- 47
2020-01-16 16:00:00 12.7 30 Sudoeste 51 Sudoeste 0 -- -- 53
2020-01-16 15:00:00 13.2 28 Sudoeste 49 Sudoeste 0 -- -- 55
2020-01-16 14:00:00 13.1 26 Sudoeste 47 Sudoeste 0 -- -- 57
2020-01-16 13:00:00 12.2 23 Sudoeste 37 Sudoeste 0 -- -- 71
2020-01-16 12:00:00 10.6 22 Sudoeste 38 Sudoeste 0 -- -- 79
2020-01-16 11:00:00 9.7 13 Sur 30 Sudoeste 0 -- -- 81
2020-01-16 10:00:00 7.5 4 Oeste 20 Sur 0 -- -- 87
2020-01-16 09:00:00 7.1 8 Sur 19 Sur 0 -- -- 88
2020-01-16 08:00:00 6.6 6 Sudoeste 22 Sudoeste 0 -- -- 89
2020-01-16 07:00:00 7.7 11 Sur 24 Sur 0 -- -- 86
2020-01-16 06:00:00 7.6 9 Sudoeste 24 Sudoeste 0 -- -- 87
2020-01-16 05:00:00 7.8 9 Sur 27 Sur 0 -- -- 83
2020-01-16 04:00:00 7.8 7 Sudoeste 24 Sudoeste 0 -- -- 85
2020-01-16 03:00:00 8.3 11 Sur 19 Sur 0 -- -- 86
2020-01-16 02:00:00 7.9 8 Sur 17 Sur 0 -- -- 90
2020-01-16 01:00:00 8 8 Sur 16 Sur 0 -- -- 90
2020-01-16 00:00:00 8 7 Sudoeste 17 Sudoeste 0 -- -- 89
2020-01-15 23:00:00 7.9 9 Sudoeste 26 Sudoeste 0 -- -- 90
2020-01-15 22:00:00 7.8 9 Sudoeste 26 Sudoeste 0 -- -- 89
2020-01-15 21:00:00 7.1 6 Sudoeste 15 Sudoeste 0 -- -- 91
2020-01-15 20:00:00 7 5 Sudoeste 17 Sudoeste 0 -- -- 88
2020-01-15 19:00:00 8.4 5 Sur 17 Sur 0 -- -- 83
2020-01-15 18:00:00 9.2 7 Sudoeste 25 Sur 0 -- -- 79
2020-01-15 17:00:00 10.1 13 Sudoeste 30 Sudoeste 0 -- -- 77
2020-01-15 16:00:00 10.4 20 Sudoeste 34 Sudoeste 0 -- -- 73
2020-01-15 15:00:00 10.7 14 Sudoeste 27 Sur 0 -- -- 77
2020-01-15 14:00:00 9.3 13 Sudoeste 28 Sudoeste 0 -- -- 81
2020-01-15 13:00:00 8.1 16 Sudoeste 37 Sudoeste 0 -- -- 85
2020-01-15 12:00:00 7.9 21 Sudoeste 44 Sudoeste 0 -- -- 83
2020-01-15 11:00:00 7.6 19 Sudoeste 33 Sudoeste 0 -- -- 81
2020-01-15 10:00:00 7.5 17 Sudoeste 44 Sudoeste 0 -- -- 73
2020-01-15 09:00:00 7.5 22 Sudoeste 44 Sur 0 -- -- 75
2020-01-15 08:00:00 7.1 18 Sur 44 Sudoeste 0 -- -- 74
2020-01-15 07:00:00 7.1 19 Sudoeste 47 Sudoeste 0 -- -- 78
2020-01-15 06:00:00 7.1 28 Sudoeste 49 Sudoeste 0 -- -- 78
2020-01-15 05:00:00 7.1 28 Sudoeste 46 Sudoeste 0 -- -- 81
2020-01-15 04:00:00 7.1 25 Sudoeste 46 Sudoeste 0 -- -- 84
2020-01-15 03:00:00 7.2 26 Sudoeste 50 Sudoeste 0 -- -- 82
2020-01-15 02:00:00 6.9 25 Sudoeste 46 Sur 0 -- -- 84
2020-01-15 01:00:00 6.6 22 Sudoeste 43 Sudoeste 0 -- -- 86
2020-01-15 00:00:00 6.2 21 Sudoeste 37 Sudoeste 0 -- -- 86
2020-01-14 23:00:00 6.4 20 Sudoeste 39 Sudoeste 0 -- -- 84
2020-01-14 22:00:00 6 19 Sudoeste 35 Sudoeste 0 -- -- 84
2020-01-14 21:00:00 5.3 9 Sudoeste 22 Sudoeste 0 -- -- 84
2020-01-14 20:00:00 6.6 9 Sudoeste 24 Sudoeste 0 -- -- 78
2020-01-14 19:00:00 7.9 11 Sur 40 Sur 0 -- -- 73
2020-01-14 18:00:00 8.2 17 Sur 34 Sudoeste 0 -- -- 70
2020-01-14 17:00:00 8.8 17 Sudoeste 31 Sudoeste 0 -- -- 69
2020-01-14 16:00:00 8.1 19 Sudoeste 36 Sudoeste 0 -- -- 73
2020-01-14 15:00:00 8.4 21 Sudoeste 39 Sudoeste 0 -- -- 71
2020-01-14 14:00:00 7.5 13 Sudoeste 32 Sudoeste 0 -- -- 76
2020-01-14 13:00:00 6.3 16 Sudoeste 31 Sudoeste 0 -- -- 77
2020-01-14 12:00:00 5.2 17 Sudoeste 30 Sudoeste 0 -- -- 81
2020-01-14 11:00:00 3.8 12 Sudoeste 26 Sudoeste 0 -- -- 86
2020-01-14 10:00:00 3 17 Sur 28 Sudoeste 0 -- -- 87
2020-01-14 09:00:00 2.9 17 Sudoeste 35 Sudoeste 0 -- -- 86
2020-01-14 08:00:00 3.2 18 Sudoeste 32 Sudoeste 0 -- -- 86
2020-01-14 07:00:00 3.3 12 Sudoeste 29 Sudoeste 0 -- -- 87
2020-01-14 06:00:00 3.3 17 Sudoeste 32 Sudoeste 0 -- -- 89
2020-01-14 05:00:00 3.4 16 Sudoeste 30 Sudoeste 0 -- -- 90
2020-01-14 04:00:00 3.2 19 Sudoeste 32 Sudoeste 0 -- -- 91
2020-01-14 03:00:00 3 18 Sudoeste 32 Sudoeste 0 -- -- 95
2020-01-14 02:00:00 0.8 7 Oeste 20 Sudoeste 0 -- -- 98
2020-01-14 01:00:00 -0.7 0 Calma 6 Sudoeste 0 -- -- 98
2020-01-14 00:00:00 -0.9 5 Oeste 14 Oeste 0 -- -- 97
2020-01-13 23:00:00 -0.4 0 Calma 6 Sudeste 0 -- -- 97
2020-01-13 22:00:00 -0.3 0 Calma 5 Sudoeste 0 -- -- 96
2020-01-13 21:00:00 0.3 2 Sudoeste 8 Oeste 0 -- -- 96
2020-01-13 20:00:00 0.6 3 Oeste 13 Sudoeste 0 -- -- 95
2020-01-13 19:00:00 1.2 10 Sudoeste 14 Sudoeste 0 -- -- 94
2020-01-13 18:00:00 1.2 7 Oeste 18 Sudoeste 0 -- -- 93
2020-01-13 17:00:00 1.1 9 Sudoeste 22 Sur 0 -- -- 92
2020-01-13 16:00:00 1.3 8 Sudoeste 16 Oeste 0 -- -- 93
2020-01-13 15:00:00 0.4 6 Sudoeste 16 Sudoeste 0 -- -- 95
2020-01-13 14:00:00 -0.1 7 Sudoeste 15 Sudoeste 0 -- -- 97
2020-01-13 13:00:00 -1 9 Sudoeste 13 Sudoeste 0 -- -- 98
2020-01-13 12:00:00 -1.2 3 Sudoeste 8 Sudoeste 0.2 -- -- 98
2020-01-13 11:00:00 -2.1 3 Sudoeste 9 Sudoeste 0 -- -- 98
2020-01-13 10:00:00 -2.9 3 Sudoeste 5 Sudoeste 0 -- -- 97
2020-01-13 09:00:00 -2.9 0 Calma 9 Sudoeste 0 -- -- 98
2020-01-13 08:00:00 -3.1 2 Sudoeste 4 Sudoeste 0 -- -- 98
2020-01-13 07:00:00 -3.2 3 Sudoeste 6 Sudoeste 0 -- -- 98
2020-01-13 06:00:00 -3.3 0 Calma 3 Sudoeste 0 -- -- 98
2020-01-13 05:00:00 -3.3 0 Calma 5 Sudoeste 0 -- -- 97
2020-01-13 04:00:00 -3.1 0 Calma 8 Sudoeste 0 -- -- 98
2020-01-13 03:00:00 -2.5 3 Sudoeste 6 Sudoeste 0 -- -- 97
2020-01-13 02:00:00 -2.1 2 Sudoeste 5 Sudoeste 0 -- -- 98
2020-01-13 01:00:00 -1.8 2 Sudoeste 5 Sudoeste 0 -- -- 98
2020-01-13 00:00:00 -1.2 2 Sudoeste 4 Sudoeste 0 -- -- 98
2020-01-12 23:00:00 -1 2 Sudoeste 6 Sudoeste 0 -- -- 97
2020-01-12 22:00:00 -0.6 3 Oeste 9 Oeste 0 -- -- 97
2020-01-12 21:00:00 0 0 Calma 5 Sudoeste 0 -- -- 97
2020-01-12 20:00:00 0.1 2 Nordeste 6 Nordeste 0 -- -- 97
2020-01-12 19:00:00 0.3 0 Calma 4 Nordeste 0 -- -- 97
2020-01-12 18:00:00 0.5 3 Norte 5 Norte 0 -- -- 97
2020-01-12 17:00:00 0.5 3 Oeste 11 Noroeste 0 -- -- 96
2020-01-12 16:00:00 1 4 Noroeste 8 Oeste 0 -- -- 97
2020-01-12 15:00:00 0.2 2 Nordeste 5 Sudoeste 0 -- -- 97
2020-01-12 14:00:00 -0.4 2 Oeste 5 Oeste 0 -- -- 97
2020-01-12 13:00:00 -1.1 0 Calma -- -- 0 -- -- 98
2020-01-12 12:00:00 -2.1 0 Calma -- -- 0 -- -- 98
2020-01-12 11:00:00 -2.8 0 Calma -- -- 0 -- -- 97
2020-01-12 10:00:00 -3.4 0 Calma -- -- 0 -- -- 97
2020-01-12 09:00:00 -3.4 0 Calma -- -- 0 -- -- 97
2020-01-12 08:00:00 -3.1 0 Calma -- -- 0 -- -- 97
2020-01-12 07:00:00 -3 0 Calma -- -- 0 -- -- 97
2020-01-12 06:00:00 -3.2 0 Calma -- -- 0 -- -- 97
2020-01-12 05:00:00 -3 0 Calma -- -- 0 -- -- 97
2020-01-12 04:00:00 -2.9 0 Calma -- -- 0 -- -- 97
2020-01-12 03:00:00 -2.8 0 Calma -- -- 0 -- -- 97
2020-01-12 02:00:00 -2.6 0 Calma -- -- 0 -- -- 97
2020-01-12 01:00:00 -3 0 Calma -- -- 0 -- -- 96
2020-01-12 00:00:00 -2.3 0 Calma 7 Oeste 0 -- -- 96
2020-01-11 23:00:00 -1.8 4 Sudoeste 7 Oeste 0 -- -- 96
2020-01-11 22:00:00 -1.4 4 Sudoeste 10 Sudoeste 0 -- -- 95
2020-01-11 21:00:00 -1 4 Oeste 10 Sudoeste 0 -- -- 93
2020-01-11 20:00:00 0.4 3 Oeste 8 Oeste 0 -- -- 89
2020-01-11 19:00:00 2 2 Sudoeste 12 Sudoeste 0 -- -- 85
2020-01-11 18:00:00 5.3 6 Sudoeste 10 Sudoeste 0 -- -- 78
2020-01-11 17:00:00 7.8 6 Sudoeste 13 Oeste 0 -- -- 70
2020-01-11 16:00:00 8.3 5 Oeste 10 Oeste 0 -- -- 67
2020-01-11 15:00:00 7.6 3 Oeste 10 Oeste 0 -- -- 67
2020-01-11 14:00:00 5.9 3 Oeste 8 Noroeste 0 -- -- 79
2020-01-11 13:00:00 3.7 3 Sudoeste 5 Oeste 0 -- -- 95
2020-01-11 12:00:00 0.6 0 Calma 4 Sudeste 0 -- -- 98
2020-01-11 11:00:00 -1.7 0 Calma 3 Sudeste 0 -- -- 97
2020-01-11 10:00:00 -2.5 0 Calma 4 Sur 0 -- -- 97
2020-01-11 09:00:00 -3.8 0 Calma 7 Nordeste 0 -- -- 96
2020-01-11 08:00:00 -4.3 3 Nordeste 4 Este 0 -- -- 95
2020-01-11 07:00:00 -3.9 0 Calma 5 Este 0 -- -- 94
2020-01-11 06:00:00 -3.1 4 Este 6 Este 0 -- -- 95
2020-01-11 05:00:00 -3.2 2 Nordeste 5 Este 0 -- -- 94
2020-01-11 04:00:00 -1.5 0 Calma 6 Sudoeste 0 -- -- 94
2020-01-11 03:00:00 -1.1 5 Noroeste 11 Este 0 -- -- 95
2020-01-11 02:00:00 -0.6 0 Calma 9 Nordeste 0 -- -- 95
2020-01-11 01:00:00 0 4 Nordeste 23 Este 0 -- -- 94
2020-01-11 00:00:00 -1.1 6 Nordeste 9 Nordeste 0 -- -- 93
2020-01-10 23:00:00 -0.4 5 Este 9 Este 0 -- -- 94
2020-01-10 22:00:00 0.2 5 Nordeste 12 Este 0 -- -- 91
2020-01-10 21:00:00 1.9 8 Nordeste 15 Este 0 -- -- 88
2020-01-10 20:00:00 2.3 7 Nordeste 13 Nordeste 0 -- -- 87
2020-01-10 19:00:00 3.5 5 Este 20 Nordeste 0 -- -- 85
2020-01-10 18:00:00 5.3 9 Nordeste 23 Este 0 -- -- 77
2020-01-10 17:00:00 7 14 Nordeste 27 Nordeste 0 -- -- 70
2020-01-10 16:00:00 7.6 17 Nordeste 26 Nordeste 0 -- -- 69
2020-01-10 15:00:00 8.5 8 Norte 15 Nordeste 0 -- -- 67
2020-01-10 14:00:00 8.1 4 Oeste 11 Sudoeste 0 -- -- 69
2020-01-10 13:00:00 6.8 3 Noroeste 15 Noroeste 0 -- -- 76
2020-01-10 12:00:00 5.3 2 Sur 7 Sur 0 -- -- 83
2020-01-10 11:00:00 2 3 Oeste 7 Sudeste 0 -- -- 94
2020-01-10 10:00:00 -0.5 3 Sudoeste 6 Sudoeste 0 -- -- 97
2020-01-10 09:00:00 -2.1 0 Calma 5 Nordeste 0 -- -- 96
2020-01-10 08:00:00 -2.2 2 Norte 6 Sudoeste 0 -- -- 94
2020-01-10 07:00:00 -2.1 3 Nordeste 6 Este 0 -- -- 95
2020-01-10 06:00:00 -1.2 0 Calma 9 Noroeste 0 -- -- 94
2020-01-10 05:00:00 -0.2 3 Oeste 5 Oeste 0 -- -- 93
2020-01-10 04:00:00 0.6 2 Noroeste 13 Nordeste 0 -- -- 92
2020-01-10 03:00:00 2 5 Este 10 Oeste 0 -- -- 91
2020-01-10 02:00:00 2.1 3 Sudoeste 9 Sudoeste 0.2 -- -- 90
2020-01-10 01:00:00 2 3 Oeste 14 Oeste 0 -- -- 87
2020-01-10 00:00:00 3.3 5 Oeste 14 Oeste 0 -- -- 84
2020-01-09 23:00:00 4.2 8 Sudoeste 16 Sudoeste 0 -- -- 82
2020-01-09 22:00:00 5.3 12 Sudoeste 30 Oeste 0 -- -- 82
2020-01-09 21:00:00 6.3 9 Oeste 23 Oeste 0 -- -- 80
2020-01-09 20:00:00 8.4 14 Oeste 30 Oeste 0 -- -- 90
2020-01-09 19:00:00 8.9 15 Sudoeste 26 Oeste 0 -- -- 91
2020-01-09 18:00:00 8.4 12 Sudoeste 22 Sudoeste 0 -- -- 90
2020-01-09 17:00:00 7.7 13 Sudoeste 27 Sudoeste 0 -- -- 91
2020-01-09 16:00:00 7.3 15 Sudoeste 28 Sudoeste 0 -- -- 92
2020-01-09 15:00:00 6 15 Sudoeste 31 Sudoeste 0 -- -- 92
2020-01-09 14:00:00 7.7 12 Sudoeste 22 Sudoeste 0 -- -- 80
2020-01-09 13:00:00 6.4 15 Sudoeste 28 Sudoeste 0 -- -- 83
2020-01-09 12:00:00 4 7 Oeste 12 Oeste 0 -- -- 99
2020-01-09 11:00:00 0.9 2 Noroeste 9 Oeste 0 -- -- 99
2020-01-09 10:00:00 -1.3 0 Calma 5 Sudoeste 0 -- -- 98
2020-01-09 09:00:00 -2 0 Calma 3 Noroeste 0 -- -- 97
2020-01-09 08:00:00 -1.6 0 Calma 5 Sudeste 0 -- -- 97
2020-01-09 07:00:00 -1.2 0 Calma 5 Sudeste 0 -- -- 97
2020-01-09 06:00:00 -1.3 0 Calma 4 Sur 0 -- -- 97
2020-01-09 05:00:00 -1.6 0 Calma 3 Este 0 -- -- 96
2020-01-09 04:00:00 -0.8 0 Calma 2 Sudeste 0 -- -- 96
2020-01-09 03:00:00 -0.6 0 Calma 3 Sudoeste 0 -- -- 95
2020-01-09 02:00:00 -0.3 0 Calma 4 Sudoeste 0 -- -- 95
2020-01-09 01:00:00 -0.1 0 Calma 4 Este 0 -- -- 95
2020-01-09 00:00:00 0.4 0 Calma 3 Este 0 -- -- 94
2020-01-08 23:00:00 1.1 2 Este 2 Este 0 -- -- 94
2020-01-08 22:00:00 1.8 0 Calma 2 Sur 0 -- -- 93
2020-01-08 21:00:00 2.5 0 Calma 3 Nordeste 0 -- -- 91
2020-01-08 20:00:00 4.2 0 Calma 2 Este 0 -- -- 87
2020-01-08 19:00:00 6.7 0 Calma 5 Oeste 0 -- -- 82
2020-01-08 18:00:00 9.7 3 Oeste 9 Oeste 0 -- -- 74
2020-01-08 17:00:00 12 6 Oeste 10 Oeste 0 -- -- 68
2020-01-08 16:00:00 11.6 4 Sudoeste 8 Sudoeste 0 -- -- 67
2020-01-08 15:00:00 10.1 4 Oeste 8 Oeste 0 -- -- 69
2020-01-08 14:00:00 7.4 3 Oeste 9 Noroeste 0 -- -- 79
2020-01-08 13:00:00 5.3 4 Sudoeste 8 Sur 0 -- -- 96
2020-01-08 12:00:00 2.4 4 Sudoeste 7 Oeste 0 -- -- 100
2020-01-08 11:00:00 -0.1 0 Calma 5 Sudeste 0.2 -- -- 100
2020-01-08 10:00:00 -2.2 2 Nordeste 4 Nordeste 0 -- -- 98
2020-01-08 09:00:00 -2.2 0 Calma 5 Este 0 -- -- 98
2020-01-08 08:00:00 -2.2 3 Nordeste 5 Nordeste 0 -- -- 98
2020-01-08 07:00:00 -2.1 0 Calma 5 Oeste 0 -- -- 98
2020-01-08 06:00:00 -2.2 0 Calma 3 Norte 0 -- -- 98
2020-01-08 05:00:00 -1.9 0 Calma 4 Sudeste 0 -- -- 98
2020-01-08 04:00:00 -2 2 Sudeste 4 Sudeste 0 -- -- 98
2020-01-08 03:00:00 -1.9 0 Calma 5 Nordeste 0 -- -- 98
2020-01-08 02:00:00 -1.7 0 Calma 4 Norte 0 -- -- 98
2020-01-08 01:00:00 -1.4 0 Calma 3 Sudeste 0 -- -- 98
2020-01-08 00:00:00 -1.1 0 Calma 3 Sudoeste 0 -- -- 98
2020-01-07 23:00:00 -0.9 0 Calma 7 Este 0 -- -- 98
2020-01-07 22:00:00 -0.6 3 Este 5 Este 0 -- -- 98
2020-01-07 21:00:00 -0.5 2 Este 6 Nordeste 0 -- -- 98
2020-01-07 20:00:00 0 3 Noroeste 5 Noroeste 0 -- -- 98
2020-01-07 19:00:00 0.3 2 Oeste 4 Oeste 0 -- -- 98
2020-01-07 18:00:00 0.4 0 Calma 7 Oeste 0 -- -- 98
2020-01-07 17:00:00 0.8 0 Calma 6 Norte 0 -- -- 98
2020-01-07 16:00:00 1 3 Noroeste 8 Noroeste 0 -- -- 98
2020-01-07 15:00:00 0.8 4 Oeste 9 Oeste 0 -- -- 99
2020-01-07 14:00:00 -0.2 4 Oeste 9 Oeste 0 -- -- 99
2020-01-07 13:00:00 -1 0 Calma -- -- 0 -- -- 99
2020-01-07 12:00:00 -2.1 0 Calma -- -- 0 -- -- 98
2020-01-07 11:00:00 -2.8 0 Calma -- -- 0 -- -- 98
2020-01-07 10:00:00 -3.2 0 Calma -- -- 0 -- -- 97
2020-01-07 09:00:00 -3.9 0 Calma -- -- 0 -- -- 97
2020-01-07 08:00:00 -3.2 0 Calma -- -- 0 -- -- 97
2020-01-07 07:00:00 -3 0 Calma -- -- 0 -- -- 97
2020-01-07 06:00:00 -2.4 0 Calma -- -- 0 -- -- 98
2020-01-07 05:00:00 -2.2 0 Calma -- -- 0 -- -- 98
2020-01-07 04:00:00 -2.4 0 Calma 6 Norte 0 -- -- 98
2020-01-07 03:00:00 -2.5 0 Calma 5 Norte 0 -- -- 98
2020-01-07 02:00:00 -2.5 0 Calma 3 Norte 0 -- -- 98
2020-01-07 01:00:00 -2.4 0 Calma 4 Norte 0 -- -- 98
2020-01-07 00:00:00 -2.2 0 Calma 8 Norte 0 -- -- 98
2020-01-06 23:00:00 -1.4 3 Norte 7 Norte 0 -- -- 98
2020-01-06 22:00:00 -1.1 2 Norte 7 Norte 0 -- -- 98
2020-01-06 21:00:00 -0.8 3 Norte 11 Norte 0 -- -- 98
2020-01-06 20:00:00 -0.5 2 Norte 10 Norte 0 -- -- 98
2020-01-06 19:00:00 -0.3 2 Norte 8 Norte 0 -- -- 98
2020-01-06 18:00:00 -0.1 3 Norte 8 Norte 0 -- -- 97
2020-01-06 17:00:00 0.3 2 Oeste 9 Sudoeste 0 -- -- 98
2020-01-06 16:00:00 0.2 3 Sudoeste 10 Oeste 0 -- -- 98
2020-01-06 15:00:00 0.2 5 Noroeste 10 Noroeste 0 -- -- 98
2020-01-06 14:00:00 -0.4 3 Noroeste 9 Noroeste 0 -- -- 98
2020-01-06 13:00:00 -0.5 0 Calma 5 Sur 0.2 -- -- 98
2020-01-06 12:00:00 -1.7 3 Sur 8 Sur 0 -- -- 98
2020-01-06 11:00:00 -2 2 Sur 5 Sur 0 -- -- 98
2020-01-06 10:00:00 -2.6 0 Calma 5 Sur 0 -- -- 98